createdAt,value
2023-05-10T00:00:24.768Z,8.06
2023-05-10T00:05:29.057Z,8.07
2023-05-10T00:10:34.615Z,8.00
2023-05-10T00:15:38.975Z,7.88
2023-05-10T00:20:43.267Z,7.84
2023-05-10T00:25:48.998Z,7.76
2023-05-10T00:30:53.034Z,7.72
2023-05-10T00:35:57.059Z,7.72
2023-05-10T00:41:02.914Z,7.67
2023-05-10T00:46:09.677Z,7.60
2023-05-10T00:51:14.259Z,7.53
2023-05-10T00:56:21.776Z,7.46
2023-05-10T01:01:26.169Z,7.45
2023-05-10T01:06:30.285Z,7.30
2023-05-10T01:11:36.854Z,7.24
2023-05-10T01:16:42.335Z,7.12
2023-05-10T01:21:51.921Z,7.04
2023-05-10T01:27:19.496Z,6.90
2023-05-10T01:32:32.723Z,6.85
2023-05-10T01:37:43.633Z,6.69
2023-05-10T01:42:51.946Z,6.58
2023-05-10T01:48:04.780Z,6.58
2023-05-10T01:53:12.195Z,6.49
2023-05-10T01:58:19.163Z,6.42
2023-05-10T02:03:26.110Z,6.40
2023-05-10T02:08:31.027Z,6.31
2023-05-10T02:13:36.689Z,6.24
2023-05-10T02:18:43.087Z,6.16
2023-05-10T02:23:47.618Z,6.14
2023-05-10T02:28:51.961Z,6.09
2023-05-10T02:33:59.120Z,6.05
2023-05-10T02:39:03.785Z,6.01
2023-05-10T02:44:09.231Z,5.98
2023-05-10T02:49:15.039Z,5.93
2023-05-10T02:54:21.756Z,5.87
2023-05-10T02:59:26.568Z,5.82
2023-05-10T03:04:32.518Z,5.79
2023-05-10T03:09:36.902Z,5.72
2023-05-10T03:14:51.219Z,5.69
2023-05-10T03:19:57.600Z,5.60
2023-05-10T03:25:06.613Z,5.63
2023-05-10T03:30:14.444Z,5.61
2023-05-10T03:35:20.585Z,5.60
2023-05-10T03:40:25.088Z,5.65
2023-05-10T03:45:29.577Z,5.72
2023-05-10T03:50:35.433Z,5.71
2023-05-10T03:55:40.678Z,5.74
2023-05-10T04:00:46.484Z,5.79
2023-05-10T04:06:00.656Z,5.94
2023-05-10T04:11:09.364Z,6.06
2023-05-10T04:16:13.377Z,6.18
2023-05-10T04:21:18.542Z,6.34
2023-05-10T04:26:23.200Z,6.52
2023-05-10T04:31:27.879Z,6.73
2023-05-10T04:36:33.707Z,6.95
2023-05-10T04:41:39.729Z,7.17
2023-05-10T04:46:43.850Z,7.37
2023-05-10T04:51:49.451Z,7.58
2023-05-10T04:56:53.480Z,7.77
2023-05-10T05:01:57.858Z,7.95
2023-05-10T05:07:03.284Z,8.17
2023-05-10T05:12:07.728Z,8.39
2023-05-10T05:17:11.683Z,8.61
2023-05-10T05:22:17.774Z,8.77
2023-05-10T05:27:25.095Z,9.04
2023-05-10T05:32:29.229Z,9.31
2023-05-10T05:37:34.823Z,9.51
2023-05-10T05:42:39.691Z,9.71
2023-05-10T05:47:43.970Z,9.98
2023-05-10T05:52:49.304Z,10.18
2023-05-10T05:57:53.604Z,10.42
2023-05-10T06:02:58.315Z,10.66
2023-05-10T06:08:04.041Z,10.90
2023-05-10T06:13:08.413Z,11.12
2023-05-10T06:18:12.462Z,11.24
2023-05-10T06:23:18.046Z,11.33
2023-05-10T06:28:22.183Z,11.54
2023-05-10T06:33:26.429Z,11.79
2023-05-10T06:38:31.862Z,11.85
2023-05-10T06:43:36.027Z,12.03
2023-05-10T06:48:40.161Z,12.21
2023-05-10T06:53:45.412Z,12.49
2023-05-10T06:58:49.473Z,12.73
2023-05-10T07:03:53.864Z,12.93
2023-05-10T07:08:59.878Z,13.14
2023-05-10T07:14:03.898Z,13.20
2023-05-10T07:19:08.107Z,13.46
2023-05-10T07:24:14.092Z,13.73
2023-05-10T07:29:17.982Z,13.77
2023-05-10T07:34:22.105Z,13.86
2023-05-10T07:39:28.801Z,14.10
2023-05-10T07:44:32.867Z,14.24
2023-05-10T07:49:36.859Z,14.49
2023-05-10T07:54:42.421Z,14.50
2023-05-10T07:59:47.081Z,14.64
2023-05-10T08:04:51.771Z,14.83
2023-05-10T08:09:57.547Z,15.06
2023-05-10T08:15:02.052Z,15.27
2023-05-10T08:20:07.424Z,15.33
2023-05-10T08:25:12.746Z,15.41
2023-05-10T08:30:17.053Z,15.42
2023-05-10T08:35:21.174Z,15.68
2023-05-10T08:40:28.209Z,15.63
2023-05-10T08:45:34.209Z,15.97
2023-05-10T08:50:39.273Z,16.06
2023-05-10T08:55:44.964Z,16.10
2023-05-10T09:00:51.862Z,16.23
2023-05-10T09:05:56.826Z,16.47
2023-05-10T09:11:02.477Z,16.39
2023-05-10T09:16:17.499Z,16.39
2023-05-10T09:21:24.929Z,16.82
2023-05-10T09:26:30.727Z,16.43
2023-05-10T09:31:52.006Z,16.90
2023-05-10T09:37:01.897Z,17.07
2023-05-10T09:42:09.601Z,17.00
2023-05-10T09:47:19.034Z,16.96
2023-05-10T09:52:23.268Z,17.05
2023-05-10T09:57:28.542Z,17.12
2023-05-10T10:02:33.229Z,16.77
2023-05-10T10:07:37.945Z,17.29
2023-05-10T10:12:43.982Z,17.30
2023-05-10T10:17:48.737Z,17.82
2023-05-10T10:22:52.672Z,17.57
2023-05-10T10:28:10.064Z,17.52
2023-05-10T10:33:32.708Z,17.52
2023-05-10T10:38:58.913Z,17.93
2023-05-10T10:44:26.439Z,18.25
2023-05-10T10:49:30.814Z,18.50
2023-05-10T10:54:34.974Z,17.95
2023-05-10T10:59:43.878Z,18.27
2023-05-10T11:04:47.974Z,18.72
2023-05-10T11:09:52.697Z,18.59
2023-05-10T11:15:00.878Z,18.06
2023-05-10T11:20:10.787Z,19.38
2023-05-10T11:25:14.926Z,19.83
2023-05-10T11:30:21.318Z,19.95
2023-05-10T11:35:25.897Z,19.61
2023-05-10T11:40:29.954Z,20.38
2023-05-10T11:45:35.801Z,20.07
2023-05-10T11:50:39.994Z,21.03
2023-05-10T11:55:44.039Z,21.53
2023-05-10T12:00:49.405Z,21.47
2023-05-10T12:05:53.961Z,21.43
2023-05-10T12:11:07.206Z,20.91
2023-05-10T12:16:20.673Z,19.03
2023-05-10T12:21:24.632Z,19.66
2023-05-10T12:26:29.988Z,20.04
2023-05-10T12:31:35.188Z,19.84
2023-05-10T12:36:40.755Z,20.54
2023-05-10T12:41:44.819Z,20.09
2023-05-10T12:46:50.263Z,20.19
2023-05-10T12:51:54.243Z,21.28
2023-05-10T12:56:58.410Z,20.94
2023-05-10T13:02:03.903Z,20.75
2023-05-10T13:07:07.926Z,20.44
2023-05-10T13:12:12.204Z,20.41
2023-05-10T13:17:17.828Z,20.42
2023-05-10T13:22:32.510Z,21.66
2023-05-10T13:27:37.038Z,21.45
2023-05-10T13:32:42.590Z,21.17
2023-05-10T13:37:46.435Z,20.25
2023-05-10T13:42:50.366Z,22.02
2023-05-10T13:47:56.204Z,22.77
2023-05-10T13:53:00.711Z,22.71
2023-05-10T13:58:05.151Z,23.13
2023-05-10T14:03:12.573Z,23.70
2023-05-10T14:08:16.997Z,23.60
2023-05-10T14:13:21.634Z,22.91
2023-05-10T14:18:27.369Z,22.75
2023-05-10T14:23:31.538Z,21.03
2023-05-10T14:28:35.827Z,21.29
2023-05-10T14:33:41.352Z,22.11
2023-05-10T14:38:45.330Z,22.36
2023-05-10T14:43:49.305Z,22.02
2023-05-10T14:48:54.412Z,20.66
2023-05-10T14:53:58.717Z,21.94
2023-05-10T14:59:05.200Z,22.42
2023-05-10T15:04:11.177Z,22.20
2023-05-10T15:09:16.621Z,23.11
2023-05-10T15:14:21.284Z,22.82
2023-05-10T15:19:26.744Z,22.05
2023-05-10T15:24:30.957Z,22.47
2023-05-10T15:29:35.259Z,22.50
2023-05-10T15:34:40.407Z,22.00
2023-05-10T15:39:44.516Z,21.68
2023-05-10T15:44:51.311Z,20.43
2023-05-10T15:49:56.791Z,19.86
2023-05-10T15:55:00.965Z,19.17
2023-05-10T16:00:06.066Z,18.82
2023-05-10T16:05:17.581Z,18.84
2023-05-10T16:10:21.977Z,18.61
2023-05-10T16:15:26.591Z,18.41
2023-05-10T16:20:31.865Z,18.02
2023-05-10T16:25:36.336Z,17.85
2023-05-10T16:30:40.310Z,17.78
2023-05-10T16:35:45.866Z,17.66
2023-05-10T16:40:50.226Z,17.59
2023-05-10T16:45:54.536Z,17.43
2023-05-10T16:51:00.388Z,17.30
2023-05-10T16:56:04.913Z,17.17
2023-05-10T17:01:09.580Z,17.00
2023-05-10T17:06:14.815Z,16.90
2023-05-10T17:11:19.950Z,16.72
2023-05-10T17:16:24.462Z,16.65
2023-05-10T17:21:30.236Z,16.56
2023-05-10T17:26:34.621Z,16.37
2023-05-10T17:31:38.546Z,16.26
2023-05-10T17:36:43.995Z,16.10
2023-05-10T17:41:47.786Z,15.84
2023-05-10T17:46:51.866Z,15.69
2023-05-10T17:51:57.471Z,15.54
2023-05-10T17:57:02.082Z,15.35
2023-05-10T18:02:06.425Z,15.12
2023-05-10T18:07:11.870Z,14.99
2023-05-10T18:12:15.655Z,14.78
2023-05-10T18:17:20.421Z,14.62
2023-05-10T18:22:26.747Z,14.39
2023-05-10T18:27:30.556Z,14.22
2023-05-10T18:32:34.866Z,14.02
2023-05-10T18:37:40.157Z,13.83
2023-05-10T18:42:46.460Z,13.72
2023-05-10T18:47:50.342Z,13.60
2023-05-10T18:52:56.607Z,13.51
2023-05-10T18:58:00.606Z,13.34
2023-05-10T19:03:05.200Z,13.25
2023-05-10T19:08:10.926Z,13.14
2023-05-10T19:13:15.232Z,13.03
2023-05-10T19:18:21.093Z,12.88
2023-05-10T19:23:30.038Z,12.87
2023-05-10T19:28:35.927Z,12.78
2023-05-10T19:33:40.770Z,12.77
2023-05-10T19:38:46.737Z,12.70
2023-05-10T19:43:52.105Z,12.66
2023-05-10T19:48:57.201Z,12.60
2023-05-10T19:54:02.807Z,12.49
2023-05-10T19:59:07.789Z,12.42
2023-05-10T20:04:11.995Z,12.33
2023-05-10T20:09:17.679Z,12.25
2023-05-10T20:14:21.701Z,12.16
2023-05-10T20:19:28.435Z,12.00
2023-05-10T20:24:33.980Z,11.96
2023-05-10T20:29:38.189Z,11.88
2023-05-10T20:34:42.508Z,11.78
2023-05-10T20:39:50.287Z,11.71
2023-05-10T20:44:54.624Z,11.64
2023-05-10T20:49:59.142Z,11.58
2023-05-10T20:55:05.085Z,11.47
2023-05-10T21:00:10.672Z,11.42
2023-05-10T21:05:14.806Z,11.34
2023-05-10T21:10:20.886Z,11.25
2023-05-10T21:15:25.975Z,11.21
2023-05-10T21:20:30.853Z,11.14
2023-05-10T21:25:36.505Z,11.03
2023-05-10T21:30:40.587Z,10.97
2023-05-10T21:35:44.575Z,10.95
2023-05-10T21:40:50.011Z,10.89
2023-05-10T21:45:54.295Z,10.81
2023-05-10T21:50:58.742Z,10.71
2023-05-10T21:56:04.266Z,10.66
2023-05-10T22:01:08.622Z,10.59
2023-05-10T22:06:13.482Z,10.49
2023-05-10T22:11:18.944Z,10.47
2023-05-10T22:16:23.052Z,10.40
2023-05-10T22:21:27.679Z,10.34
2023-05-10T22:26:32.969Z,10.29
2023-05-10T22:31:37.674Z,10.17
2023-05-10T22:36:41.712Z,10.08
2023-05-10T22:41:47.103Z,10.00
2023-05-10T22:46:51.139Z,9.94
2023-05-10T22:51:55.672Z,9.83
2023-05-10T22:57:01.410Z,9.73
2023-05-10T23:02:05.447Z,9.65
2023-05-10T23:07:09.367Z,9.52
2023-05-10T23:12:15.115Z,9.51
2023-05-10T23:17:19.249Z,9.39
2023-05-10T23:22:23.799Z,9.30
2023-05-10T23:27:31.318Z,9.23
2023-05-10T23:32:36.040Z,9.12
2023-05-10T23:37:41.073Z,9.03
2023-05-10T23:42:46.627Z,9.03
2023-05-10T23:47:50.707Z,9.02
2023-05-10T23:52:54.888Z,8.91
2023-05-10T23:58:00.527Z,8.90
